Attleborough, United Kingdom
Current Conditions -  °F | °C
As of 12:50 PM on Friday 31 Oct 2014 (Local Time) from EGSH Reporting Station
Few Clouds Few Clouds  
Wind Chill: 20°   Ceiling: Unl
Heat Index: 20°   Visibility: 6mi
Dew Point: 15°   Wind: 8mph
Humidity: 73%   Direction: 190°S
Pressure: 30.03"   Gusts: NA
Location:  52.51°N, 1°E
Report Text: EGSH 311250Z 19007KT 110V220 9999 FEW045 20/15 Q1017 NOSIG
Loading
Personal Weather Stations






























Interactive Weather Map
Tropical Storm Tracking
New forecast layout! Learn more

10-Day Weather Forecast

Advertisements
Track Severe Weather on mobile